createdAt,value
2023-04-14T00:00:06.148Z,993.19
2023-04-14T00:01:06.222Z,993.17
2023-04-14T00:02:06.124Z,993.15
2023-04-14T00:03:06.344Z,993.14
2023-04-14T00:04:06.166Z,993.12
2023-04-14T00:05:06.114Z,993.11
2023-04-14T00:06:06.064Z,993.09
2023-04-14T00:07:06.094Z,993.09
2023-04-14T00:08:06.053Z,993.09
2023-04-14T00:09:06.072Z,993.10
2023-04-14T00:10:06.091Z,993.12
2023-04-14T00:11:06.103Z,993.13
2023-04-14T00:12:05.988Z,993.16
2023-04-14T00:13:06.034Z,993.20
2023-04-14T00:14:06.000Z,993.23
2023-04-14T00:15:05.930Z,993.25
2023-04-14T00:16:05.923Z,993.26
2023-04-14T00:17:06.076Z,993.26
2023-04-14T00:18:05.977Z,993.26
2023-04-14T00:19:05.962Z,993.24
2023-04-14T00:20:05.897Z,993.24
2023-04-14T00:21:05.887Z,993.23
2023-04-14T00:22:05.937Z,993.24
2023-04-14T00:23:05.878Z,993.24
2023-04-14T00:24:05.851Z,993.24
2023-04-14T00:25:05.938Z,993.25
2023-04-14T00:26:05.900Z,993.24
2023-04-14T00:27:05.784Z,993.23
2023-04-14T00:28:05.882Z,993.22
2023-04-14T00:29:05.792Z,993.21
2023-04-14T00:30:05.756Z,993.22
2023-04-14T00:31:05.818Z,993.23
2023-04-14T00:32:05.797Z,993.25
2023-04-14T00:33:05.793Z,993.25
2023-04-14T00:34:05.724Z,993.26
2023-04-14T00:35:05.834Z,993.25
2023-04-14T00:36:05.702Z,993.25
2023-04-14T00:37:05.733Z,993.24
2023-04-14T00:38:05.759Z,993.24
2023-04-14T00:39:05.679Z,993.24
2023-04-14T00:40:05.784Z,993.25
2023-04-14T00:41:05.723Z,993.26
2023-04-14T00:42:05.959Z,993.25
2023-04-14T00:43:05.636Z,993.25
2023-04-14T00:44:05.662Z,993.23
2023-04-14T00:45:05.682Z,993.22
2023-04-14T00:46:05.680Z,993.20
2023-04-14T00:47:05.754Z,993.19
2023-04-14T00:48:05.569Z,993.17
2023-04-14T00:49:05.615Z,993.15
2023-04-14T00:50:05.607Z,993.14
2023-04-14T00:51:05.558Z,993.12
2023-04-14T00:52:05.557Z,993.12
2023-04-14T00:53:05.541Z,993.12
2023-04-14T00:54:05.659Z,993.11
2023-04-14T00:55:05.484Z,993.11
2023-04-14T01:14:31.790Z,993.03
2023-04-14T01:15:32.803Z,993.02
2023-04-14T01:16:32.846Z,993.01
2023-04-14T01:17:32.819Z,993.00
2023-04-14T01:18:32.766Z,993.00
2023-04-14T01:19:32.750Z,993.01
2023-04-14T01:20:32.774Z,993.04
2023-04-14T01:21:32.786Z,993.06
2023-04-14T01:22:32.783Z,993.09
2023-04-14T01:23:32.677Z,993.09
2023-04-14T01:24:32.757Z,993.10
2023-04-14T01:25:32.726Z,993.09
2023-04-14T01:26:32.685Z,993.10
2023-04-14T01:27:32.651Z,993.10
2023-04-14T01:28:32.661Z,993.10
2023-04-14T01:29:32.713Z,993.10
2023-04-14T01:30:32.631Z,993.11
2023-04-14T01:31:32.824Z,993.13
2023-04-14T01:32:32.625Z,993.14
2023-04-14T01:33:32.638Z,993.16
2023-04-14T01:34:33.098Z,993.17
2023-04-14T01:35:32.596Z,993.18
2023-04-14T01:36:32.553Z,993.20
2023-04-14T01:37:32.574Z,993.20
2023-04-14T01:38:32.544Z,993.21
2023-04-14T01:39:32.612Z,993.21
2023-04-14T01:40:32.526Z,993.21
2023-04-14T01:41:32.533Z,993.21
2023-04-14T01:42:32.540Z,993.19
2023-04-14T01:43:32.529Z,993.18
2023-04-14T01:44:32.474Z,993.17
2023-04-14T01:45:32.552Z,993.17
2023-04-14T01:46:32.567Z,993.16
2023-04-14T01:47:32.491Z,993.16
2023-04-14T01:48:32.457Z,993.16
2023-04-14T01:49:32.479Z,993.17
2023-04-14T01:50:32.642Z,993.19
2023-04-14T01:51:32.426Z,993.19
2023-04-14T01:52:32.462Z,993.20
2023-04-14T01:53:32.436Z,993.21
2023-04-14T01:54:32.455Z,993.20
2023-04-14T01:55:32.384Z,993.19
2023-04-14T01:56:32.346Z,993.19
2023-04-14T01:57:32.371Z,993.17
2023-04-14T01:58:32.346Z,993.16
2023-04-14T01:59:32.377Z,993.14
2023-04-14T02:00:32.315Z,993.13
2023-04-14T02:01:32.347Z,993.11
2023-04-14T02:02:32.469Z,993.10
2023-04-14T02:03:32.438Z,993.10
2023-04-14T02:04:32.243Z,993.10
2023-04-14T02:05:32.304Z,993.11
2023-04-14T02:06:32.245Z,993.12
2023-04-14T02:07:32.262Z,993.13
2023-04-14T02:08:32.300Z,993.14
2023-04-14T02:09:32.282Z,993.15
2023-04-14T02:10:32.229Z,993.17
2023-04-14T02:11:32.228Z,993.17
2023-04-14T02:12:32.228Z,993.17
2023-04-14T02:13:32.222Z,993.16
2023-04-14T02:14:32.231Z,993.16
2023-04-14T02:15:32.229Z,993.16
2023-04-14T02:16:32.246Z,993.17
2023-04-14T02:17:32.267Z,993.18
2023-04-14T02:18:32.164Z,993.20
2023-04-14T02:19:32.169Z,993.21
2023-04-14T02:20:32.168Z,993.24
2023-04-14T02:21:32.117Z,993.24
2023-04-14T02:22:32.185Z,993.25
2023-04-14T02:23:32.136Z,993.26
2023-04-14T02:24:32.055Z,993.28
2023-04-14T02:25:32.140Z,993.30
2023-04-14T02:26:32.072Z,993.32
2023-04-14T02:27:32.035Z,993.35
2023-04-14T02:28:32.036Z,993.38
2023-04-14T02:29:32.074Z,993.40
2023-04-14T02:30:31.998Z,993.42
2023-04-14T02:31:32.032Z,993.44
2023-04-14T02:32:32.053Z,993.46
2023-04-14T02:33:32.040Z,993.47
2023-04-14T02:34:31.984Z,993.49
2023-04-14T02:35:31.904Z,993.50
2023-04-14T02:36:31.973Z,993.51
2023-04-14T02:37:31.925Z,993.51
2023-04-14T02:38:31.932Z,993.52
2023-04-14T02:39:31.899Z,993.53
2023-04-14T02:40:31.992Z,993.54
2023-04-14T02:41:32.100Z,993.54
2023-04-14T02:42:31.911Z,993.53
2023-04-14T02:43:31.861Z,993.52
2023-04-14T02:44:31.915Z,993.50
2023-04-14T02:45:31.832Z,993.50
2023-04-14T02:46:31.859Z,993.50
2023-04-14T02:47:31.897Z,993.51
2023-04-14T02:48:31.821Z,993.53
2023-04-14T02:49:31.806Z,993.54
2023-04-14T02:50:31.799Z,993.56
2023-04-14T02:51:31.787Z,993.57
2023-04-14T02:52:31.750Z,993.57
2023-04-14T02:53:31.819Z,993.59
2023-04-14T02:54:31.889Z,993.59
2023-04-14T02:55:31.828Z,993.60
2023-04-14T02:56:31.755Z,993.60
2023-04-14T02:57:31.723Z,993.60
2023-04-14T02:58:31.738Z,993.60
2023-04-14T02:59:31.726Z,993.62
2023-04-14T03:00:31.680Z,993.62
2023-04-14T03:01:31.766Z,993.64
2023-04-14T03:02:31.692Z,993.65
2023-04-14T03:03:31.726Z,993.66
2023-04-14T03:04:31.657Z,993.67
2023-04-14T03:05:31.676Z,993.68
2023-04-14T03:06:31.714Z,993.69
2023-04-14T03:07:31.610Z,993.70
2023-04-14T03:08:31.596Z,993.71
2023-04-14T03:09:31.717Z,993.72
2023-04-14T03:10:31.634Z,993.72
2023-04-14T03:11:31.621Z,993.72
2023-04-14T03:12:31.629Z,993.72
2023-04-14T03:13:31.628Z,993.71
2023-04-14T03:14:31.553Z,993.71
2023-04-14T03:15:31.573Z,993.71
2023-04-14T03:16:31.627Z,993.70
2023-04-14T03:17:31.612Z,993.69
2023-04-14T03:18:31.550Z,993.68
2023-04-14T03:19:31.521Z,993.68
2023-04-14T03:20:31.486Z,993.68
2023-04-14T03:21:31.494Z,993.68
2023-04-14T03:22:31.448Z,993.67
2023-04-14T03:23:31.449Z,993.66
2023-04-14T03:24:31.465Z,993.66
2023-04-14T03:25:31.431Z,993.66
2023-04-14T03:26:31.484Z,993.65
2023-04-14T03:27:31.368Z,993.65
2023-04-14T03:28:31.455Z,993.64
2023-04-14T03:29:31.428Z,993.64
2023-04-14T03:30:31.387Z,993.65
2023-04-14T03:31:31.448Z,993.65
2023-04-14T03:32:31.379Z,993.65
2023-04-14T03:33:31.367Z,993.65
2023-04-14T03:34:31.398Z,993.65
2023-04-14T03:35:31.318Z,993.65
2023-04-14T03:36:31.440Z,993.63
2023-04-14T03:37:31.282Z,993.62
2023-04-14T03:38:31.337Z,993.59
2023-04-14T03:39:31.303Z,993.57
2023-04-14T03:40:31.353Z,993.56
2023-04-14T03:41:31.259Z,993.55
2023-04-14T03:42:31.213Z,993.56
2023-04-14T03:43:31.310Z,993.56
2023-04-14T03:44:31.224Z,993.56
2023-04-14T03:45:31.195Z,993.56
2023-04-14T03:46:31.307Z,993.56
2023-04-14T03:47:31.494Z,993.55
2023-04-14T03:48:31.200Z,993.55
2023-04-14T03:49:31.194Z,993.55
2023-04-14T03:50:31.446Z,993.55
2023-04-14T03:51:31.211Z,993.55
2023-04-14T03:52:31.171Z,993.55
2023-04-14T03:53:31.229Z,993.55
2023-04-14T03:54:31.137Z,993.55
2023-04-14T03:55:31.153Z,993.54
2023-04-14T03:56:31.297Z,993.53
2023-04-14T03:57:31.099Z,993.53
2023-04-14T03:58:31.056Z,993.53
2023-04-14T03:59:31.064Z,993.53
2023-04-14T04:00:31.013Z,993.54
2023-04-14T04:01:31.055Z,993.55
2023-04-14T04:02:31.159Z,993.55
2023-04-14T04:03:31.434Z,993.57
2023-04-14T04:04:31.166Z,993.58
2023-04-14T04:05:30.996Z,993.58
2023-04-14T04:06:31.014Z,993.60
2023-04-14T04:07:30.940Z,993.61
2023-04-14T04:08:30.933Z,993.62
2023-04-14T04:09:30.861Z,993.62
2023-04-14T04:10:30.889Z,993.63
2023-04-14T04:11:30.873Z,993.63
2023-04-14T04:12:30.872Z,993.63
2023-04-14T04:13:30.840Z,993.62
2023-04-14T04:14:30.868Z,993.62
2023-04-14T04:15:30.852Z,993.63
2023-04-14T04:16:30.861Z,993.64
2023-04-14T04:17:30.833Z,993.65
2023-04-14T04:18:30.811Z,993.67
2023-04-14T04:19:30.777Z,993.69
2023-04-14T04:20:30.761Z,993.71
2023-04-14T04:21:30.824Z,993.72
2023-04-14T04:22:30.775Z,993.74
2023-04-14T04:23:30.747Z,993.76
2023-04-14T04:24:30.755Z,993.76
2023-04-14T04:25:30.715Z,993.78
2023-04-14T04:26:30.682Z,993.78
2023-04-14T04:27:30.695Z,993.79
2023-04-14T04:28:30.733Z,993.79
2023-04-14T04:29:30.670Z,993.81
2023-04-14T04:30:30.705Z,993.81
2023-04-14T04:31:30.672Z,993.82
2023-04-14T04:32:30.725Z,993.82
2023-04-14T04:33:30.622Z,993.82
2023-04-14T04:34:30.672Z,993.83
2023-04-14T04:35:30.603Z,993.84
2023-04-14T04:36:30.623Z,993.85
2023-04-14T04:37:30.643Z,993.87
2023-04-14T04:38:30.606Z,993.89
2023-04-14T04:39:30.556Z,993.90
2023-04-14T04:40:30.544Z,993.92
2023-04-14T04:41:30.565Z,993.92
2023-04-14T04:42:30.610Z,993.93
2023-04-14T04:43:30.558Z,993.94
2023-04-14T04:44:30.537Z,993.94
2023-04-14T04:45:30.501Z,993.94
2023-04-14T04:46:30.670Z,993.94
2023-04-14T04:47:30.534Z,993.94
2023-04-14T04:48:30.512Z,993.95
2023-04-14T04:49:30.464Z,993.96
2023-04-14T04:50:30.436Z,993.97
2023-04-14T04:51:30.470Z,993.98
2023-04-14T04:52:30.442Z,993.99
2023-04-14T04:53:30.499Z,993.99
2023-04-14T04:54:30.423Z,993.99
2023-04-14T04:55:30.427Z,994.00
2023-04-14T04:56:30.357Z,994.00
2023-04-14T04:57:30.438Z,994.00
2023-04-14T04:58:30.386Z,994.01
2023-04-14T04:59:30.352Z,994.02
2023-04-14T05:00:30.349Z,994.02
2023-04-14T05:01:30.352Z,994.01
2023-04-14T05:02:30.335Z,994.01
2023-04-14T05:03:30.407Z,994.00
2023-04-14T05:04:30.393Z,993.99
2023-04-14T05:05:30.295Z,993.99
2023-04-14T05:06:30.291Z,993.99
2023-04-14T05:07:30.241Z,993.99
2023-04-14T05:08:30.248Z,994.00
2023-04-14T05:09:30.257Z,994.00
2023-04-14T05:10:30.224Z,994.01
2023-04-14T05:11:30.216Z,994.03
2023-04-14T05:12:30.245Z,994.05
2023-04-14T05:13:30.177Z,994.06
2023-04-14T05:14:30.209Z,994.06
2023-04-14T05:15:30.185Z,994.07
2023-04-14T05:16:30.166Z,994.07
2023-04-14T05:17:30.217Z,994.08
2023-04-14T05:18:30.169Z,994.09
2023-04-14T05:19:30.114Z,994.10
2023-04-14T05:20:30.170Z,994.11
2023-04-14T05:21:30.182Z,994.11
2023-04-14T05:22:30.106Z,994.10
2023-04-14T05:23:30.090Z,994.10
2023-04-14T05:24:30.094Z,994.10
2023-04-14T05:25:30.040Z,994.08
2023-04-14T05:26:51.759Z,994.06
2023-04-14T05:27:30.029Z,994.05
2023-04-14T05:28:30.035Z,994.04
2023-04-14T05:29:30.021Z,994.04
2023-04-14T05:30:30.032Z,994.04
2023-04-14T05:31:30.062Z,994.03
2023-04-14T05:32:30.003Z,994.04
2023-04-14T05:33:29.967Z,994.05
2023-04-14T05:34:29.953Z,994.06
2023-04-14T05:35:29.994Z,994.06
2023-04-14T05:36:29.973Z,994.06
2023-04-14T05:37:30.070Z,994.05
2023-04-14T05:38:29.985Z,994.03
2023-04-14T05:39:29.904Z,994.02
2023-04-14T05:40:29.894Z,994.01
2023-04-14T05:41:29.876Z,994.01
2023-04-14T05:42:29.981Z,994.01
2023-04-14T05:43:29.894Z,994.01
2023-04-14T05:44:29.851Z,994.01
2023-04-14T05:45:29.846Z,994.02
2023-04-14T05:46:29.887Z,994.03
2023-04-14T05:47:29.848Z,994.04
2023-04-14T05:48:29.822Z,994.05
2023-04-14T05:49:29.781Z,994.06
2023-04-14T05:50:29.793Z,994.06
2023-04-14T05:51:29.788Z,994.06
2023-04-14T05:52:29.766Z,994.08
2023-04-14T05:53:29.744Z,994.10
2023-04-14T05:54:29.794Z,994.13
2023-04-14T05:55:29.866Z,994.15
2023-04-14T05:56:29.729Z,994.16
2023-04-14T05:57:29.726Z,994.17
2023-04-14T05:58:29.715Z,994.17
2023-04-14T05:59:29.715Z,994.17
2023-04-14T06:00:29.749Z,994.16
2023-04-14T06:01:29.850Z,994.16
2023-04-14T06:02:29.829Z,994.14
2023-04-14T06:03:29.809Z,994.14
2023-04-14T06:04:29.731Z,994.14
2023-04-14T06:05:29.902Z,994.15
2023-04-14T06:06:29.605Z,994.16
2023-04-14T06:07:29.668Z,994.17
2023-04-14T06:08:29.599Z,994.18
2023-04-14T06:09:29.594Z,994.19
2023-04-14T06:10:29.654Z,994.19
2023-04-14T06:11:29.578Z,994.20
2023-04-14T06:12:29.563Z,994.21
2023-04-14T06:13:31.958Z,994.21
2023-04-14T06:14:29.530Z,994.20
2023-04-14T06:15:29.540Z,994.20
2023-04-14T06:16:29.585Z,994.20
2023-04-14T06:17:29.525Z,994.21
2023-04-14T06:18:29.507Z,994.21
2023-04-14T06:19:29.469Z,994.21
2023-04-14T06:20:31.910Z,994.19
2023-04-14T06:21:29.456Z,994.18
2023-04-14T06:22:29.437Z,994.15
2023-04-14T06:23:29.439Z,994.15
2023-04-14T06:24:29.461Z,994.14
2023-04-14T06:25:29.412Z,994.14
2023-04-14T06:26:29.411Z,994.14
2023-04-14T06:27:29.411Z,994.15
2023-04-14T06:28:29.399Z,994.15
2023-04-14T06:29:29.361Z,994.14
2023-04-14T06:30:29.355Z,994.13
2023-04-14T06:31:29.368Z,994.13
2023-04-14T06:32:29.394Z,994.12
2023-04-14T06:33:29.334Z,994.12
2023-04-14T06:34:29.365Z,994.11
2023-04-14T06:35:33.680Z,994.11
2023-04-14T06:36:29.308Z,994.11
2023-04-14T06:37:29.312Z,994.12
2023-04-14T06:38:29.269Z,994.13
2023-04-14T06:39:29.304Z,994.14
2023-04-14T06:40:29.341Z,994.15
2023-04-14T06:41:29.237Z,994.15
2023-04-14T06:42:29.270Z,994.16
2023-04-14T06:43:29.226Z,994.16
2023-04-14T06:44:29.191Z,994.16
2023-04-14T06:45:29.254Z,994.15
2023-04-14T06:46:29.313Z,994.14
2023-04-14T06:47:29.257Z,994.13
2023-04-14T06:48:29.338Z,994.13
2023-04-14T06:49:29.159Z,994.14
2023-04-14T06:50:29.138Z,994.13
2023-04-14T06:51:29.138Z,994.14
2023-04-14T06:52:29.195Z,994.14
2023-04-14T06:53:29.107Z,994.15
2023-04-14T06:54:29.081Z,994.16
2023-04-14T06:55:29.107Z,994.16
2023-04-14T06:56:29.083Z,994.17
2023-04-14T06:57:29.081Z,994.17
2023-04-14T06:58:29.184Z,994.18
2023-04-14T06:59:29.083Z,994.19
2023-04-14T07:00:29.052Z,994.19
2023-04-14T07:01:29.094Z,994.20
2023-04-14T07:02:29.078Z,994.22
2023-04-14T07:03:29.068Z,994.23
2023-04-14T07:04:29.050Z,994.24
2023-04-14T07:05:28.989Z,994.25
2023-04-14T07:06:29.260Z,994.25
2023-04-14T07:07:28.993Z,994.25
2023-04-14T07:08:29.267Z,994.25
2023-04-14T07:09:28.994Z,994.25
2023-04-14T07:10:28.958Z,994.27
2023-04-14T07:11:28.952Z,994.26
2023-04-14T07:12:28.912Z,994.26
2023-04-14T07:13:28.929Z,994.26
2023-04-14T07:14:28.897Z,994.26
2023-04-14T07:15:28.942Z,994.27
2023-04-14T07:16:28.921Z,994.28
2023-04-14T07:17:28.923Z,994.29
2023-04-14T07:18:28.867Z,994.30
2023-04-14T07:19:28.829Z,994.30
2023-04-14T07:20:28.840Z,994.30
2023-04-14T07:21:28.817Z,994.31
2023-04-14T07:22:28.835Z,994.31
2023-04-14T07:23:28.823Z,994.32
2023-04-14T07:24:28.803Z,994.33
2023-04-14T07:25:28.771Z,994.34
2023-04-14T07:26:28.750Z,994.38
2023-04-14T07:27:28.822Z,994.36
2023-04-14T07:28:28.747Z,994.38
2023-04-14T07:29:28.760Z,994.39
2023-04-14T07:30:28.697Z,994.39
2023-04-14T07:31:28.721Z,994.39
2023-04-14T07:32:28.703Z,994.40
2023-04-14T07:33:29.128Z,994.40
2023-04-14T07:34:28.695Z,994.40
2023-04-14T07:35:28.654Z,994.41
2023-04-14T07:36:28.624Z,994.41
2023-04-14T07:37:28.642Z,994.41
2023-04-14T07:38:28.630Z,994.42
2023-04-14T07:39:29.324Z,994.43
2023-04-14T07:40:28.625Z,994.44
2023-04-14T07:41:28.665Z,994.44
2023-04-14T07:42:28.558Z,994.44
2023-04-14T07:43:28.555Z,994.44
2023-04-14T07:44:28.586Z,994.42
2023-04-14T07:45:28.544Z,994.40
2023-04-14T07:46:28.559Z,994.39
2023-04-14T07:47:28.540Z,994.36
2023-04-14T07:48:28.502Z,994.33
2023-04-14T07:49:28.502Z,994.30
2023-04-14T07:50:28.505Z,994.27
2023-04-14T07:51:28.497Z,994.25
2023-04-14T07:52:28.468Z,994.22
2023-04-14T07:53:28.443Z,994.21
2023-04-14T07:54:28.441Z,994.20
2023-04-14T07:55:28.451Z,994.19
2023-04-14T07:56:28.426Z,994.18
2023-04-14T07:57:28.471Z,994.18
2023-04-14T07:58:29.557Z,994.18
2023-04-14T07:59:28.412Z,994.18
2023-04-14T08:00:28.362Z,994.17
2023-04-14T08:01:28.360Z,994.17
2023-04-14T08:02:28.524Z,994.17
2023-04-14T08:03:28.680Z,994.17
2023-04-14T08:04:28.397Z,994.17
2023-04-14T08:05:28.358Z,994.17
2023-04-14T08:06:28.302Z,994.16
2023-04-14T08:07:28.291Z,994.15
2023-04-14T08:08:28.324Z,994.14
2023-04-14T08:09:28.285Z,994.14
2023-04-14T08:10:28.263Z,994.15
2023-04-14T08:11:28.239Z,994.15
2023-04-14T08:12:28.234Z,994.14
2023-04-14T08:13:28.249Z,994.13
2023-04-14T08:14:28.230Z,994.11
2023-04-14T08:15:28.217Z,994.09
2023-04-14T08:16:28.280Z,994.07
2023-04-14T08:17:28.231Z,994.05
2023-04-14T08:18:28.167Z,994.05
2023-04-14T08:19:28.188Z,994.04
2023-04-14T08:20:28.143Z,994.04
2023-04-14T08:21:28.162Z,994.04
2023-04-14T08:22:28.164Z,994.03
2023-04-14T08:23:28.136Z,994.02
2023-04-14T08:24:28.120Z,994.00
2023-04-14T08:25:28.094Z,993.98
2023-04-14T08:26:28.109Z,993.97
2023-04-14T08:27:28.090Z,993.97
2023-04-14T08:28:28.082Z,993.96
2023-04-14T08:29:28.088Z,993.96
2023-04-14T08:30:28.050Z,993.95
2023-04-14T08:31:28.048Z,993.93
2023-04-14T08:32:28.453Z,993.92
2023-04-14T08:33:28.051Z,993.90
2023-04-14T08:34:28.776Z,993.89
2023-04-14T08:35:37.097Z,993.88
2023-04-14T08:36:28.017Z,993.89
2023-04-14T08:37:27.974Z,993.88
2023-04-14T08:38:27.987Z,993.88
2023-04-14T08:39:27.981Z,993.90
2023-04-14T08:40:27.983Z,993.92
2023-04-14T08:41:27.955Z,993.93
2023-04-14T08:42:27.907Z,993.96
2023-04-14T08:43:27.928Z,993.97
2023-04-14T08:44:27.919Z,993.98
2023-04-14T08:45:27.917Z,993.99
2023-04-14T08:46:28.014Z,993.98
2023-04-14T08:47:27.950Z,993.97
2023-04-14T08:48:27.848Z,993.97
2023-04-14T08:49:27.909Z,993.95
2023-04-14T08:50:27.854Z,993.95
2023-04-14T08:51:27.831Z,993.94
2023-04-14T08:52:27.833Z,993.92
2023-04-14T08:53:27.879Z,993.90
2023-04-14T08:54:27.809Z,993.88
2023-04-14T08:55:27.837Z,993.82
2023-04-14T08:56:27.763Z,993.75
2023-04-14T08:57:27.751Z,993.72
2023-04-14T08:58:27.809Z,993.67
2023-04-14T08:59:27.814Z,993.67
2023-04-14T09:00:27.770Z,993.68
2023-04-14T09:01:27.848Z,993.70
2023-04-14T09:02:27.878Z,993.71
2023-04-14T09:03:27.849Z,993.70
2023-04-14T09:04:27.926Z,993.68
2023-04-14T09:05:27.673Z,993.70
2023-04-14T09:06:27.724Z,993.69
2023-04-14T09:07:29.886Z,993.63
2023-04-14T09:08:27.689Z,993.59
2023-04-14T09:09:27.774Z,993.56
2023-04-14T09:10:27.817Z,993.55
2023-04-14T09:11:27.703Z,993.52
2023-04-14T09:12:27.588Z,993.48
2023-04-14T09:13:27.863Z,993.47
2023-04-14T09:14:27.613Z,993.47
2023-04-14T09:15:27.786Z,993.46
2023-04-14T09:16:27.587Z,993.45
2023-04-14T09:17:27.651Z,993.43
2023-04-14T09:18:28.375Z,993.42
2023-04-14T09:19:27.714Z,993.40
2023-04-14T09:20:34.742Z,993.39
2023-04-14T09:21:27.515Z,993.38
2023-04-14T09:22:27.510Z,993.38
2023-04-14T09:23:27.498Z,993.37
2023-04-14T09:24:28.649Z,993.35
2023-04-14T09:25:27.475Z,993.33
2023-04-14T09:26:27.457Z,993.30
2023-04-14T09:27:27.426Z,993.28
2023-04-14T09:28:27.476Z,993.27
2023-04-14T09:29:27.409Z,993.27
2023-04-14T09:30:27.555Z,993.25
2023-04-14T09:31:27.524Z,993.26
2023-04-14T09:32:27.482Z,993.26
2023-04-14T09:33:27.432Z,993.27
2023-04-14T09:34:27.439Z,993.27
2023-04-14T09:35:27.405Z,993.27
2023-04-14T09:36:27.566Z,993.26
2023-04-14T09:37:27.334Z,993.25
2023-04-14T09:38:27.365Z,993.26
2023-04-14T09:39:27.342Z,993.21
2023-04-14T09:40:27.334Z,993.19
2023-04-14T09:41:27.337Z,993.18
2023-04-14T09:42:27.427Z,993.17
2023-04-14T09:43:27.434Z,993.18
2023-04-14T09:44:27.352Z,993.17
2023-04-14T09:45:27.268Z,993.18
2023-04-14T09:46:27.306Z,993.18
2023-04-14T09:47:27.327Z,993.17
2023-04-14T09:48:27.236Z,993.18
2023-04-14T09:49:27.249Z,993.17
2023-04-14T09:50:27.222Z,993.14
2023-04-14T09:51:27.182Z,993.12
2023-04-14T09:52:27.173Z,993.12
2023-04-14T09:53:27.263Z,993.10
2023-04-14T09:54:27.288Z,993.06
2023-04-14T09:55:27.214Z,993.06
2023-04-14T09:56:27.210Z,993.02
2023-04-14T09:57:27.130Z,993.02
2023-04-14T09:58:28.772Z,993.00
2023-04-14T09:59:27.075Z,993.00
2023-04-14T10:00:27.089Z,992.98
2023-04-14T10:01:27.092Z,992.99
2023-04-14T10:02:27.287Z,993.00
2023-04-14T10:03:27.292Z,993.01
2023-04-14T10:04:27.095Z,993.01
2023-04-14T10:05:27.106Z,993.01
2023-04-14T10:06:27.068Z,993.00
2023-04-14T10:07:27.118Z,993.00
2023-04-14T10:08:27.041Z,992.96
2023-04-14T10:09:27.030Z,992.94
2023-04-14T10:10:26.965Z,992.93
2023-04-14T10:11:26.986Z,992.90
2023-04-14T10:12:26.962Z,992.89
2023-04-14T10:13:26.950Z,992.88
2023-04-14T10:14:26.948Z,992.87
2023-04-14T10:15:26.956Z,992.89
2023-04-14T10:16:27.098Z,992.87
2023-04-14T10:17:29.467Z,992.89
2023-04-14T10:18:26.977Z,992.89
2023-04-14T10:19:26.938Z,992.90
2023-04-14T10:20:26.917Z,992.88
2023-04-14T10:21:26.852Z,992.87
2023-04-14T10:22:26.858Z,992.86
2023-04-14T10:23:26.829Z,992.82
2023-04-14T10:24:26.820Z,992.81
2023-04-14T10:25:26.823Z,992.77
2023-04-14T10:26:26.834Z,992.78
2023-04-14T10:27:26.816Z,992.74
2023-04-14T10:28:26.795Z,992.73
2023-04-14T10:29:26.764Z,992.74
2023-04-14T10:30:26.809Z,992.74
2023-04-14T10:31:26.957Z,992.73
2023-04-14T10:32:26.785Z,992.73
2023-04-14T10:33:26.754Z,992.75
2023-04-14T10:34:26.750Z,992.74
2023-04-14T10:35:26.715Z,992.75
2023-04-14T10:36:26.706Z,992.71
2023-04-14T10:37:26.692Z,992.69
2023-04-14T10:38:26.853Z,992.71
2023-04-14T10:39:26.721Z,992.70
2023-04-14T10:40:26.665Z,992.68
2023-04-14T10:41:26.666Z,992.69
2023-04-14T10:42:26.678Z,992.72
2023-04-14T10:43:26.634Z,992.73
2023-04-14T10:44:26.648Z,992.73
2023-04-14T10:45:26.618Z,992.74
2023-04-14T10:46:26.618Z,992.76
2023-04-14T10:47:26.632Z,992.72
2023-04-14T10:48:26.612Z,992.75
2023-04-14T10:49:26.584Z,992.74
2023-04-14T10:50:26.626Z,992.72
2023-04-14T10:51:26.574Z,992.69
2023-04-14T10:52:26.544Z,992.70
2023-04-14T10:53:26.516Z,992.70
2023-04-14T10:54:26.564Z,992.69
2023-04-14T10:55:26.505Z,992.68
2023-04-14T10:56:26.517Z,992.68
2023-04-14T10:57:26.520Z,992.68
2023-04-14T10:58:26.511Z,992.71
2023-04-14T10:59:26.452Z,992.66
2023-04-14T11:00:26.469Z,992.66
2023-04-14T11:01:26.528Z,992.61
2023-04-14T11:02:26.601Z,992.58
2023-04-14T11:03:28.748Z,992.54
2023-04-14T11:04:26.486Z,992.54
2023-04-14T11:05:26.438Z,992.49
2023-04-14T11:06:26.405Z,992.47
2023-04-14T11:07:26.376Z,992.46
2023-04-14T11:08:26.416Z,992.44
2023-04-14T11:09:26.373Z,992.45
2023-04-14T11:10:26.402Z,992.41
2023-04-14T11:11:26.427Z,992.43
2023-04-14T11:12:26.385Z,992.43
2023-04-14T11:13:26.324Z,992.43
2023-04-14T11:14:26.372Z,992.45
2023-04-14T11:15:26.318Z,992.39
2023-04-14T11:16:26.337Z,992.37
2023-04-14T11:17:26.400Z,992.35
2023-04-14T11:18:26.347Z,992.34
2023-04-14T11:19:26.286Z,992.37
2023-04-14T11:20:26.262Z,992.35
2023-04-14T11:21:26.293Z,992.34
2023-04-14T11:22:26.286Z,992.35
2023-04-14T11:23:26.257Z,992.33
2023-04-14T11:24:26.248Z,992.33
2023-04-14T11:25:26.242Z,992.28
2023-04-14T11:26:26.226Z,992.28
2023-04-14T11:27:26.214Z,992.28
2023-04-14T11:28:26.231Z,992.29
2023-04-14T11:29:26.194Z,992.29
2023-04-14T11:30:26.208Z,992.25
2023-04-14T11:31:26.238Z,992.26
2023-04-14T11:32:26.564Z,992.24
2023-04-14T11:33:26.152Z,992.25
2023-04-14T11:34:26.170Z,992.23
2023-04-14T11:35:26.162Z,992.21
2023-04-14T11:36:26.134Z,992.21
2023-04-14T11:37:26.090Z,992.20
2023-04-14T11:38:26.122Z,992.17
2023-04-14T11:39:26.085Z,992.19
2023-04-14T11:40:26.076Z,992.19
2023-04-14T11:41:26.106Z,992.19
2023-04-14T11:42:26.066Z,992.22
2023-04-14T11:43:26.077Z,992.27
2023-04-14T11:44:26.021Z,992.19
2023-04-14T11:45:26.027Z,992.22
2023-04-14T11:46:26.071Z,992.22
2023-04-14T11:47:26.018Z,992.14
2023-04-14T11:48:26.015Z,992.14
2023-04-14T11:49:26.005Z,992.15
2023-04-14T11:50:26.007Z,992.16
2023-04-14T11:51:25.966Z,992.12
2023-04-14T11:52:25.970Z,992.09
2023-04-14T11:53:25.947Z,992.04
2023-04-14T11:54:26.917Z,992.05
2023-04-14T11:55:25.948Z,992.09
2023-04-14T11:56:25.944Z,992.10
2023-04-14T11:57:25.905Z,992.11
2023-04-14T11:58:25.920Z,992.10
2023-04-14T11:59:25.886Z,992.07
2023-04-14T12:00:25.963Z,992.10
2023-04-14T12:01:25.911Z,992.10
2023-04-14T12:02:25.977Z,992.03
2023-04-14T12:03:25.951Z,992.01
2023-04-14T12:04:26.041Z,992.01
2023-04-14T12:05:25.898Z,991.94
2023-04-14T12:06:25.865Z,991.89
2023-04-14T12:07:25.828Z,991.86
2023-04-14T12:08:25.829Z,991.82
2023-04-14T12:09:25.819Z,991.79
2023-04-14T12:10:25.776Z,991.76
2023-04-14T12:11:25.825Z,991.73
2023-04-14T12:12:27.547Z,991.72
2023-04-14T12:13:25.772Z,991.70
2023-04-14T12:14:25.781Z,991.69
2023-04-14T12:15:25.762Z,991.70
2023-04-14T12:16:25.773Z,991.77
2023-04-14T12:17:25.737Z,991.79
2023-04-14T12:18:25.731Z,991.83
2023-04-14T12:19:25.717Z,991.85
2023-04-14T12:20:25.689Z,991.87
2023-04-14T12:21:25.697Z,991.88
2023-04-14T12:22:25.689Z,991.90
2023-04-14T12:23:25.672Z,991.92
2023-04-14T12:24:25.642Z,991.92
2023-04-14T12:25:25.657Z,991.93
2023-04-14T12:26:25.705Z,991.92
2023-04-14T12:27:25.611Z,991.93
2023-04-14T12:28:25.610Z,991.92
2023-04-14T12:29:25.598Z,991.92
2023-04-14T12:30:25.582Z,991.92
2023-04-14T12:31:25.601Z,991.91
2023-04-14T12:32:25.624Z,991.91
2023-04-14T12:33:25.547Z,991.90
2023-04-14T12:34:25.558Z,991.89
2023-04-14T12:35:25.566Z,991.88
2023-04-14T12:36:32.987Z,991.85
2023-04-14T12:37:25.518Z,991.84
2023-04-14T12:38:25.514Z,991.84
2023-04-14T12:39:25.513Z,991.81
2023-04-14T12:40:25.503Z,991.74
2023-04-14T12:41:25.471Z,991.69
2023-04-14T12:42:25.479Z,991.66
2023-04-14T12:43:25.452Z,991.64
2023-04-14T12:44:25.472Z,991.62
2023-04-14T12:45:25.469Z,991.66
2023-04-14T12:46:25.506Z,991.70